Time;durP1;ratioP1;P1;durP2;ratioP2;P2;SDS_P1;SDS_P2;PMS_P1;PMS_P2;Temp;Humidity;BMP_temperature;BMP_pressure;BME280_temperature;BME280_humidity;BME280_pressure;Samples;Min_cycle;Max_cycle;Signal;HPM_P1;HPM_P2
2023/08/28 00:01:30;;;;;;;0.10;0.10;;;13.40;56.10;;;;;;5031878;28;20192;-59
2023/08/28 00:04:00;;;;;;;0.10;0.10;;;13.40;56.10;;;;;;5031684;28;20200;-61
2023/08/28 00:06:33;;;;;;;0.10;0.10;;;13.50;56.10;;;;;;5031757;28;20218;-62
2023/08/28 00:09:04;;;;;;;0.10;0.10;;;13.50;56.00;;;;;;5031537;28;20231;-59
2023/08/28 00:11:35;;;;;;;0.10;0.10;;;13.50;55.90;;;;;;5031326;28;20231;-59
2023/08/28 00:14:05;;;;;;;0.10;0.10;;;13.50;55.90;;;;;;5031041;28;20208;-59
2023/08/28 00:16:36;;;;;;;0.15;0.15;;;13.60;55.80;;;;;;5031528;28;20608;-59
2023/08/28 00:19:07;;;;;;;0.10;0.10;;;13.60;55.80;;;;;;5031405;28;20668;-59
2023/08/28 00:21:40;;;;;;;0.10;0.10;;;13.60;55.80;;;;;;5031644;28;20207;-59
2023/08/28 00:24:10;;;;;;;0.10;0.10;;;13.60;55.80;;;;;;5031770;28;20200;-59
2023/08/28 00:26:41;;;;;;;0.10;0.10;;;13.60;55.80;;;;;;5031645;28;20207;-59
2023/08/28 00:29:12;;;;;;;0.10;0.10;;;13.60;55.80;;;;;;5031409;28;20219;-59
2023/08/28 00:31:42;;;;;;;0.10;0.10;;;13.70;55.70;;;;;;5031473;28;20683;-59
2023/08/28 00:34:13;;;;;;;0.10;0.10;;;13.70;55.70;;;;;;5030961;28;20200;-59
2023/08/28 00:36:45;;;;;;;0.10;0.10;;;13.70;55.70;;;;;;5031410;28;20601;-60
2023/08/28 00:39:16;;;;;;;0.10;0.10;;;13.70;55.70;;;;;;5030969;28;20618;-60
2023/08/28 00:41:46;;;;;;;0.10;0.10;;;13.80;55.70;;;;;;5033352;28;20238;-62
2023/08/28 00:44:17;;;;;;;0.10;0.10;;;13.80;55.70;;;;;;5035669;28;20206;-59
2023/08/28 00:46:48;;;;;;;0.10;0.10;;;13.80;55.70;;;;;;5035190;28;20196;-60
2023/08/28 00:49:19;;;;;;;0.10;0.10;;;13.80;55.70;;;;;;5035136;28;20302;-60
2023/08/28 00:51:51;;;;;;;0.10;0.10;;;13.80;55.60;;;;;;5035884;28;20207;-60
2023/08/28 00:54:22;;;;;;;0.13;0.13;;;13.80;55.60;;;;;;5035423;28;20200;-60
2023/08/28 00:56:54;;;;;;;0.10;0.10;;;13.80;55.60;;;;;;5035371;28;20199;-60
2023/08/28 00:59:25;;;;;;;0.10;0.10;;;13.90;55.60;;;;;;5034998;28;20700;-60
2023/08/28 01:01:56;;;;;;;0.10;0.10;;;13.90;55.70;;;;;;5035183;28;20571;-60
2023/08/28 01:04:26;;;;;;;0.10;0.10;;;13.90;55.60;;;;;;5034781;28;20279;-60
2023/08/28 01:07:08;;;;;;;0.10;0.10;;;13.90;55.70;;;;;;5035022;28;20201;-60
2023/08/28 01:09:47;;;;;;;0.10;0.10;;;13.90;55.70;;;;;;5034534;28;20212;-60
2023/08/28 01:12:25;;;;;;;0.10;0.10;;;14.00;55.70;;;;;;5034531;28;20204;-60
2023/08/28 01:15:02;;;;;;;0.10;0.10;;;14.00;55.60;;;;;;5034948;28;20570;-60
2023/08/28 01:17:34;;;;;;;0.10;0.10;;;14.00;55.60;;;;;;5034557;28;20207;-60
2023/08/28 01:20:06;;;;;;;0.10;0.10;;;14.00;55.70;;;;;;5034822;28;20239;-60
2023/08/28 01:22:46;;;;;;;0.10;0.10;;;14.10;55.70;;;;;;5034885;28;20599;-60
2023/08/28 01:25:19;;;;;;;0.10;0.10;;;14.10;55.80;;;;;;5035123;28;20196;-60
2023/08/28 01:27:50;;;;;;;0.10;0.10;;;14.10;55.70;;;;;;5034742;28;20212;-60
2023/08/28 01:30:21;;;;;;;0.10;0.10;;;14.10;55.70;;;;;;5034283;28;20691;-60
2023/08/28 01:32:51;;;;;;;0.10;0.10;;;14.10;55.70;;;;;;5034121;28;20196;-60
2023/08/28 01:35:24;;;;;;;0.10;0.10;;;14.20;55.70;;;;;;5034319;28;20602;-60
2023/08/28 01:38:11;;;;;;;0.00;0.00;;;14.20;55.70;;;;;;5034343;28;20192;-60
2023/08/28 01:40:50;;;;;;;0.10;0.10;;;14.20;55.70;;;;;;5034356;28;20230;-60
2023/08/28 01:43:23;;;;;;;0.10;0.10;;;14.20;55.70;;;;;;5034731;28;20198;-60
2023/08/28 01:45:55;;;;;;;0.10;0.10;;;14.30;55.70;;;;;;5034087;28;20199;-60
2023/08/28 01:48:28;;;;;;;0.10;0.10;;;14.30;55.70;;;;;;5033666;28;20208;-60
2023/08/28 01:50:59;;;;;;;0.10;0.10;;;14.30;56.30;;;;;;5034311;28;20288;-59
2023/08/28 01:53:30;;;;;;;0.10;0.10;;;14.30;55.70;;;;;;5033479;28;20207;-60
2023/08/28 01:56:29;;;;;;;0.20;0.20;;;14.30;55.60;;;;;;5033671;28;20200;-60
2023/08/28 01:59:02;;;;;;;0.10;0.10;;;14.40;55.70;;;;;;5033672;28;20212;-60
2023/08/28 02:01:32;;;;;;;0.10;0.10;;;14.40;55.70;;;;;;5033727;28;20262;-60
2023/08/28 02:04:03;;;;;;;0.10;0.10;;;14.40;55.70;;;;;;5033884;28;20203;-61
2023/08/28 02:06:34;;;;;;;0.10;0.10;;;14.40;55.70;;;;;;5034036;28;20285;-61
2023/08/28 02:09:04;;;;;;;0.10;0.10;;;14.50;55.70;;;;;;5033812;28;20227;-60
2023/08/28 02:11:37;;;;;;;0.10;0.10;;;14.50;55.70;;;;;;5033784;28;20204;-61
2023/08/28 02:14:07;;;;;;;0.10;0.10;;;14.50;55.70;;;;;;5033868;28;20196;-61
2023/08/28 02:16:39;;;;;;;0.10;0.10;;;14.50;55.60;;;;;;5033610;28;20200;-61
2023/08/28 02:19:10;;;;;;;0.10;0.10;;;14.60;55.60;;;;;;5032665;28;20286;-60
2023/08/28 02:21:40;;;;;;;0.10;0.10;;;14.60;55.60;;;;;;5033048;28;20753;-60
2023/08/28 02:24:11;;;;;;;0.10;0.10;;;14.60;55.60;;;;;;5033149;28;20204;-60
2023/08/28 02:26:44;;;;;;;0.10;0.10;;;14.70;55.60;;;;;;5033717;28;20211;-61
2023/08/28 02:29:14;;;;;;;0.10;0.10;;;14.70;55.50;;;;;;5034022;28;20350;-60
2023/08/28 02:31:45;;;;;;;0.10;0.10;;;14.70;55.50;;;;;;5033216;28;20699;-61
2023/08/28 02:34:16;;;;;;;0.00;0.00;;;14.70;55.30;;;;;;5032418;28;20676;-60
2023/08/28 02:36:46;;;;;;;0.00;0.00;;;14.80;55.40;;;;;;5033220;28;20385;-61
2023/08/28 02:39:17;;;;;;;0.10;0.10;;;14.80;55.40;;;;;;5033169;28;20219;-61
2023/08/28 02:41:49;;;;;;;0.10;0.10;;;14.80;55.40;;;;;;5032889;28;20199;-61
2023/08/28 02:44:20;;;;;;;0.10;0.10;;;14.80;55.50;;;;;;5033209;28;20196;-61
2023/08/28 02:46:51;;;;;;;0.10;0.10;;;14.90;55.50;;;;;;5033708;28;20197;-60
2023/08/28 02:49:21;;;;;;;0.10;0.10;;;14.90;55.50;;;;;;5032569;28;20220;-61
2023/08/28 02:51:52;;;;;;;0.10;0.10;;;15.00;55.60;;;;;;5033028;28;20215;-60
2023/08/28 02:54:23;;;;;;;0.10;0.10;;;15.00;55.60;;;;;;5032665;28;20230;-61
2023/08/28 02:56:55;;;;;;;0.10;0.10;;;15.10;55.60;;;;;;5032881;28;20207;-61
2023/08/28 02:59:27;;;;;;;0.10;0.10;;;15.10;55.60;;;;;;5032848;28;20216;-61
2023/08/28 03:01:57;;;;;;;0.10;0.10;;;15.10;55.60;;;;;;5033031;28;20200;-61
2023/08/28 03:04:28;;;;;;;0.10;0.10;;;15.20;55.60;;;;;;5032204;28;20652;-60
2023/08/28 03:06:59;;;;;;;0.00;0.00;;;15.20;55.60;;;;;;5032696;28;20232;-61
2023/08/28 03:09:31;;;;;;;0.10;0.10;;;15.30;55.60;;;;;;5032379;28;20216;-61
2023/08/28 03:12:03;;;;;;;0.10;0.10;;;15.30;55.70;;;;;;5032494;28;20238;-60
2023/08/28 03:14:34;;;;;;;0.00;0.00;;;15.30;55.60;;;;;;5032205;28;20196;-60
2023/08/28 03:17:05;;;;;;;0.10;0.10;;;15.30;55.60;;;;;;5032352;28;20200;-61
2023/08/28 03:19:35;;;;;;;0.08;0.08;;;15.40;55.70;;;;;;5031823;28;20216;-61
2023/08/28 03:22:06;;;;;;;0.10;0.10;;;15.40;55.70;;;;;;5032012;28;20219;-61
2023/08/28 03:24:37;;;;;;;0.10;0.10;;;15.50;55.70;;;;;;5032110;28;20196;-61
2023/08/28 03:27:19;;;;;;;0.10;0.10;;;15.50;55.70;;;;;;5129372;27;21038;-61
2023/08/28 03:29:49;;;;;;;0.10;0.10;;;15.60;55.60;;;;;;5115887;28;20220;-61
2023/08/28 03:32:20;;;;;;;0.10;0.10;;;15.60;55.60;;;;;;5108981;28;20200;-61
2023/08/28 03:34:51;;;;;;;0.10;0.10;;;15.60;55.60;;;;;;5108769;28;20193;-61
2023/08/28 03:37:21;;;;;;;0.10;0.10;;;15.70;55.60;;;;;;5108743;28;20246;-61
2023/08/28 03:39:52;;;;;;;0.10;0.10;;;15.80;55.60;;;;;;5108905;28;20553;-61
2023/08/28 03:42:24;;;;;;;0.08;0.08;;;15.80;55.50;;;;;;5109147;28;20194;-61
2023/08/28 03:44:55;;;;;;;0.10;0.10;;;15.80;55.40;;;;;;5109361;28;20189;-61
2023/08/28 03:47:25;;;;;;;0.10;0.10;;;15.80;55.30;;;;;;5109349;28;20383;-61
2023/08/28 03:49:56;;;;;;;0.00;0.00;;;15.90;55.30;;;;;;5108739;28;20218;-61
2023/08/28 03:52:27;;;;;;;0.10;0.10;;;15.90;55.30;;;;;;5109298;28;20228;-60
2023/08/28 03:54:57;;;;;;;0.00;0.00;;;15.90;55.20;;;;;;5108731;28;20225;-61
2023/08/28 03:57:30;;;;;;;0.10;0.10;;;16.00;55.30;;;;;;5108339;28;20202;-61
2023/08/28 04:00:00;;;;;;;0.10;0.10;;;16.00;55.20;;;;;;5108565;28;20217;-61
2023/08/28 04:02:31;;;;;;;0.10;0.10;;;16.00;55.10;;;;;;5108711;28;20193;-61
2023/08/28 04:05:04;;;;;;;0.10;0.10;;;16.10;55.10;;;;;;5108850;28;20661;-60
2023/08/28 04:07:34;;;;;;;0.10;0.10;;;16.10;54.50;;;;;;5108892;28;20193;-61
2023/08/28 04:10:05;;;;;;;0.10;0.10;;;16.20;53.70;;;;;;5108481;28;20221;-61
2023/08/28 04:12:38;;;;;;;0.00;0.00;;;16.20;53.80;;;;;;5108540;28;20514;-61
2023/08/28 04:15:10;;;;;;;0.10;0.10;;;16.30;53.90;;;;;;5115571;28;20672;-61
2023/08/28 04:17:40;;;;;;;0.05;0.05;;;16.30;53.90;;;;;;5129049;28;20185;-61
2023/08/28 04:20:17;;;;;;;0.00;0.00;;;16.40;54.00;;;;;;5129181;27;20213;-61
2023/08/28 04:22:48;;;;;;;0.10;0.10;;;16.40;54.00;;;;;;5129087;28;20193;-61
2023/08/28 04:25:19;;;;;;;0.10;0.10;;;16.50;54.10;;;;;;5128573;28;20201;-61
2023/08/28 04:27:52;;;;;;;0.10;0.10;;;16.50;54.00;;;;;;5112778;28;20259;-61
2023/08/28 04:30:22;;;;;;;0.10;0.10;;;16.50;54.00;;;;;;5095320;28;20217;-61
2023/08/28 04:32:53;;;;;;;0.10;0.10;;;16.50;54.00;;;;;;5087560;28;20689;-61
2023/08/28 04:35:24;;;;;;;0.08;0.08;;;16.60;54.00;;;;;;5099910;28;20545;-61
2023/08/28 04:37:54;;;;;;;0.08;0.08;;;16.60;54.00;;;;;;5083947;28;20190;-61
2023/08/28 04:40:25;;;;;;;0.00;0.00;;;16.60;54.00;;;;;;5089379;28;20217;-61
2023/08/28 04:42:57;;;;;;;0.10;0.10;;;16.70;53.90;;;;;;5093464;28;20187;-60
2023/08/28 04:45:28;;;;;;;0.00;0.00;;;16.70;53.90;;;;;;5094124;28;20198;-61
2023/08/28 04:47:59;;;;;;;0.08;0.08;;;16.70;53.90;;;;;;5094137;28;20194;-61
2023/08/28 04:50:37;;;;;;;0.10;0.10;;;16.70;53.90;;;;;;5094724;28;20218;-60
2023/08/28 04:53:07;;;;;;;0.00;0.00;;;16.80;53.90;;;;;;5094029;28;20202;-60
2023/08/28 04:55:40;;;;;;;0.00;0.00;;;16.80;53.90;;;;;;5092249;28;20197;-61
2023/08/28 04:58:13;;;;;;;0.00;0.00;;;16.80;53.90;;;;;;5085634;28;20194;-61
2023/08/28 05:00:43;;;;;;;0.10;0.10;;;16.80;53.90;;;;;;5075754;28;20199;-61
2023/08/28 05:03:14;;;;;;;0.10;0.10;;;16.90;53.90;;;;;;5072912;28;20662;-61
2023/08/28 05:05:44;;;;;;;0.00;0.00;;;16.90;53.80;;;;;;5073573;28;20222;-61
2023/08/28 05:08:15;;;;;;;0.03;0.03;;;16.90;53.80;;;;;;5073667;28;20198;-61
2023/08/28 05:10:46;;;;;;;0.10;0.10;;;16.90;53.80;;;;;;5073601;28;20651;-61
2023/08/28 05:13:19;;;;;;;0.10;0.10;;;16.90;53.80;;;;;;5073617;28;20199;-61
2023/08/28 05:15:49;;;;;;;0.00;0.00;;;16.90;53.80;;;;;;5074079;28;20257;-61
2023/08/28 05:18:20;;;;;;;0.10;0.10;;;16.90;54.40;;;;;;5073204;28;20195;-61
2023/08/28 05:20:51;;;;;;;0.00;0.00;;;16.90;53.80;;;;;;5073594;28;20199;-61
2023/08/28 05:23:25;;;;;;;0.10;0.10;;;16.90;53.80;;;;;;5073429;28;20206;-61
2023/08/28 05:25:55;;;;;;;0.00;0.00;;;16.90;53.70;;;;;;5072860;28;20221;-61
2023/08/28 05:28:30;;;;;;;0.00;0.00;;;17.00;53.80;;;;;;5093373;28;20556;-61
2023/08/28 05:31:01;;;;;;;0.00;0.00;;;17.00;53.80;;;;;;5093571;28;20193;-61
2023/08/28 05:33:32;;;;;;;0.10;0.10;;;17.00;53.90;;;;;;5093228;28;20193;-61
2023/08/28 05:36:03;;;;;;;0.00;0.00;;;17.00;53.90;;;;;;5092798;28;20198;-61
2023/08/28 05:38:34;;;;;;;0.00;0.00;;;17.00;53.80;;;;;;5092669;28;20218;-61
2023/08/28 05:41:04;;;;;;;0.10;0.10;;;17.00;53.60;;;;;;5093408;28;20198;-61
2023/08/28 05:43:37;;;;;;;0.00;0.00;;;17.00;53.60;;;;;;5093570;28;20206;-61
2023/08/28 05:46:07;;;;;;;0.00;0.00;;;17.00;53.60;;;;;;5093056;28;20229;-61
2023/08/28 05:48:38;;;;;;;0.08;0.08;;;17.00;53.60;;;;;;5091921;28;20253;-61
2023/08/28 05:51:09;;;;;;;0.10;0.10;;;17.00;53.60;;;;;;5093333;28;20282;-60
2023/08/28 05:53:39;;;;;;;0.10;0.10;;;17.00;53.00;;;;;;5093189;28;20197;-61
2023/08/28 05:56:10;;;;;;;0.10;0.10;;;16.90;52.50;;;;;;5092998;28;20676;-60
2023/08/28 05:58:43;;;;;;;0.00;0.00;;;17.00;52.50;;;;;;5092880;28;20215;-61
2023/08/28 06:01:13;;;;;;;0.00;0.00;;;17.00;52.50;;;;;;5092593;28;20199;-60
2023/08/28 06:03:44;;;;;;;0.10;0.10;;;17.00;52.60;;;;;;5092528;28;20198;-60
2023/08/28 06:06:15;;;;;;;0.08;0.08;;;17.00;52.70;;;;;;5092434;28;20222;-59
2023/08/28 06:08:45;;;;;;;0.03;0.03;;;17.00;52.70;;;;;;5092447;28;20214;-60
2023/08/28 06:11:17;;;;;;;0.05;0.05;;;17.00;52.70;;;;;;5092230;28;20198;-59
2023/08/28 06:13:49;;;;;;;0.00;0.00;;;17.00;52.60;;;;;;5093515;28;20194;-60
2023/08/28 06:16:20;;;;;;;0.10;0.10;;;16.90;52.50;;;;;;5072573;28;20206;-60
2023/08/28 06:18:51;;;;;;;0.10;0.10;;;16.90;52.50;;;;;;5072714;28;20332;-60
2023/08/28 06:21:21;;;;;;;0.10;0.10;;;16.90;52.50;;;;;;5072544;28;20619;-60
2023/08/28 06:23:52;;;;;;;0.10;0.10;;;16.90;52.50;;;;;;5072447;28;20199;-59
2023/08/28 06:26:22;;;;;;;0.17;0.17;;;16.90;52.50;;;;;;5075225;28;20225;-60
2023/08/28 06:28:55;;;;;;;0.10;0.10;;;16.90;52.50;;;;;;5092119;28;20225;-61
2023/08/28 06:31:26;;;;;;;0.10;0.10;;;16.90;52.50;;;;;;5092518;28;20194;-59
2023/08/28 06:33:56;;;;;;;0.10;0.10;;;16.80;52.50;;;;;;5092539;28;20259;-59
2023/08/28 06:36:27;;;;;;;0.10;0.10;;;16.80;52.50;;;;;;5082081;28;20198;-57
2023/08/28 06:38:57;;;;;;;0.10;0.10;;;16.80;52.50;;;;;;5080951;28;20218;-59
2023/08/28 06:41:28;;;;;;;0.10;0.10;;;16.80;52.50;;;;;;5077563;28;20209;-58
2023/08/28 06:44:01;;;;;;;0.10;0.10;;;16.80;52.50;;;;;;5091772;28;20339;-59
2023/08/28 06:46:32;;;;;;;0.10;0.10;;;16.70;52.40;;;;;;5094469;28;20305;-59
2023/08/28 06:49:03;;;;;;;0.00;0.00;;;16.70;52.40;;;;;;5091715;28;20214;-59
2023/08/28 06:51:33;;;;;;;0.08;0.08;;;16.70;52.40;;;;;;5091700;28;20190;-60
2023/08/28 06:54:04;;;;;;;0.03;0.03;;;16.70;52.30;;;;;;5091972;28;20201;-60
2023/08/28 06:56:35;;;;;;;0.10;0.10;;;16.60;52.30;;;;;;5091896;28;20207;-59
2023/08/28 06:59:08;;;;;;;0.08;0.08;;;16.60;52.30;;;;;;5091855;28;20279;-59
2023/08/28 07:01:38;;;;;;;0.10;0.10;;;16.60;52.30;;;;;;5092049;28;20206;-59
2023/08/28 07:04:09;;;;;;;0.00;0.00;;;16.50;52.20;;;;;;5091727;28;20217;-58
2023/08/28 07:06:40;;;;;;;0.00;0.00;;;16.50;52.30;;;;;;5091485;28;20312;-59
2023/08/28 07:09:11;;;;;;;0.13;0.13;;;16.50;52.30;;;;;;5091706;28;20213;-60
2023/08/28 07:11:41;;;;;;;0.00;0.00;;;16.50;52.30;;;;;;5091832;28;20190;-59
2023/08/28 07:14:14;;;;;;;0.00;0.00;;;16.40;52.20;;;;;;5091565;28;20194;-59
2023/08/28 07:16:45;;;;;;;0.08;0.08;;;16.40;52.30;;;;;;5091710;28;20198;-59
2023/08/28 07:19:15;;;;;;;0.10;0.10;;;16.40;52.20;;;;;;5091543;28;20214;-59
2023/08/28 07:21:46;;;;;;;0.10;0.10;;;16.40;52.20;;;;;;5090479;28;20202;-59
2023/08/28 07:24:16;;;;;;;0.05;0.05;;;16.40;52.20;;;;;;5091316;28;20604;-59
2023/08/28 07:26:47;;;;;;;0.10;0.10;;;16.30;52.20;;;;;;5091477;28;20222;-59
2023/08/28 07:29:19;;;;;;;0.10;0.10;;;16.30;52.10;;;;;;5091801;28;20294;-58
2023/08/28 07:31:50;;;;;;;0.08;0.08;;;16.30;52.10;;;;;;5091771;28;20194;-59
2023/08/28 07:34:21;;;;;;;0.10;0.10;;;16.30;52.10;;;;;;5091516;28;20660;-58
2023/08/28 07:36:51;;;;;;;0.10;0.10;;;16.20;52.00;;;;;;5091442;28;20681;-58
2023/08/28 07:39:22;;;;;;;0.10;0.10;;;16.20;52.10;;;;;;5091670;28;20214;-59
2023/08/28 07:41:53;;;;;;;0.00;0.00;;;16.20;52.10;;;;;;5091850;28;20194;-58
2023/08/28 07:44:25;;;;;;;0.10;0.10;;;16.10;52.00;;;;;;5091694;28;20469;-58
2023/08/28 07:46:56;;;;;;;0.03;0.03;;;16.10;52.10;;;;;;5091339;28;20226;-58
2023/08/28 07:49:27;;;;;;;0.10;0.10;;;16.10;52.10;;;;;;5091071;28;20210;-59
2023/08/28 07:51:57;;;;;;;0.10;0.10;;;16.00;52.10;;;;;;5091786;28;20699;-59
2023/08/28 07:54:28;;;;;;;0.00;0.00;;;16.10;52.80;;;;;;5091486;28;20190;-58
2023/08/28 07:56:59;;;;;;;0.10;0.10;;;16.00;52.20;;;;;;5091323;28;20201;-58
2023/08/28 07:59:31;;;;;;;0.10;0.10;;;16.00;52.20;;;;;;5090867;28;20586;-58
2023/08/28 08:02:02;;;;;;;0.10;0.10;;;16.00;52.20;;;;;;5091228;28;20191;-58
2023/08/28 08:04:33;;;;;;;0.10;0.10;;;16.00;52.20;;;;;;5090494;28;20206;-59
2023/08/28 08:07:04;;;;;;;0.10;0.10;;;16.00;52.10;;;;;;5090748;28;20265;-58
2023/08/28 08:09:34;;;;;;;0.10;0.10;;;16.00;52.20;;;;;;5090553;28;20585;-58
2023/08/28 08:12:05;;;;;;;0.10;0.10;;;15.90;52.10;;;;;;5091675;28;20205;-59
2023/08/28 08:14:38;;;;;;;0.10;0.10;;;15.90;52.10;;;;;;5095354;28;20194;-58
2023/08/28 08:17:09;;;;;;;0.00;0.00;;;15.90;52.10;;;;;;5094988;28;20201;-58
2023/08/28 08:19:40;;;;;;;0.10;0.10;;;15.90;52.10;;;;;;5094142;28;20220;-58
2023/08/28 08:22:11;;;;;;;0.10;0.10;;;15.80;52.20;;;;;;5105326;28;20250;-58
2023/08/28 08:24:42;;;;;;;0.05;0.05;;;15.80;52.20;;;;;;5115150;28;20263;-59
2023/08/28 08:27:12;;;;;;;0.10;0.10;;;15.80;52.20;;;;;;5104616;28;20726;-58
2023/08/28 08:29:45;;;;;;;0.10;0.10;;;15.80;52.30;;;;;;5094398;28;20210;-58
2023/08/28 08:32:15;;;;;;;0.10;0.10;;;15.70;52.20;;;;;;5094508;28;20194;-58
2023/08/28 08:34:46;;;;;;;0.10;0.10;;;15.70;52.20;;;;;;5093836;28;20194;-59
2023/08/28 08:37:18;;;;;;;0.00;0.00;;;15.70;52.20;;;;;;5095051;28;20249;-59
2023/08/28 08:39:48;;;;;;;0.10;0.10;;;15.70;52.20;;;;;;5094412;28;20682;-58
2023/08/28 08:42:19;;;;;;;0.10;0.10;;;15.70;52.20;;;;;;5093850;28;20190;-59
2023/08/28 08:44:52;;;;;;;0.10;0.10;;;15.60;52.20;;;;;;5094652;28;20202;-58
2023/08/28 08:47:23;;;;;;;0.10;0.10;;;15.60;52.10;;;;;;5094375;28;20221;-58
2023/08/28 08:49:58;;;;;;;0.10;0.10;;;15.60;52.20;;;;;;5093676;28;20685;-59
2023/08/28 08:52:30;;;;;;;0.00;0.00;;;15.60;52.20;;;;;;5094532;28;20658;-58
2023/08/28 08:55:08;;;;;;;0.10;0.10;;;15.50;52.10;;;;;;5094150;28;20654;-59
2023/08/28 08:57:42;;;;;;;0.10;0.10;;;15.50;52.10;;;;;;5094273;28;20304;-58
2023/08/28 09:00:18;;;;;;;0.10;0.10;;;15.50;52.10;;;;;;5094024;28;20771;-58
2023/08/28 09:02:50;;;;;;;0.00;0.00;;;15.50;52.10;;;;;;5093594;28;20658;-58
2023/08/28 09:05:21;;;;;;;0.10;0.10;;;15.40;52.10;;;;;;5093094;28;20715;-58
2023/08/28 09:07:52;;;;;;;0.10;0.10;;;15.40;52.10;;;;;;5093569;28;20728;-58
2023/08/28 09:10:23;;;;;;;0.10;0.10;;;15.40;52.10;;;;;;5093660;28;20225;-59
2023/08/28 09:12:54;;;;;;;0.10;0.10;;;15.40;52.10;;;;;;5093528;28;20190;-58
2023/08/28 09:15:27;;;;;;;0.10;0.10;;;15.40;52.20;;;;;;5093903;28;20190;-58
2023/08/28 09:18:02;;;;;;;0.10;0.10;;;15.30;52.30;;;;;;5094087;28;20210;-59
2023/08/28 09:20:32;;;;;;;0.10;0.10;;;15.30;52.20;;;;;;5092898;28;20213;-56
2023/08/28 09:23:03;;;;;;;0.10;0.10;;;15.30;52.10;;;;;;5093663;28;20202;-58
2023/08/28 09:25:34;;;;;;;0.10;0.10;;;15.30;52.20;;;;;;5093381;28;20212;-58
2023/08/28 09:28:05;;;;;;;0.00;0.00;;;15.30;52.20;;;;;;5093349;28;20225;-58
2023/08/28 09:30:38;;;;;;;0.10;0.10;;;15.20;52.10;;;;;;5093390;28;20214;-59
2023/08/28 09:33:09;;;;;;;0.10;0.10;;;15.20;52.40;;;;;;5093518;28;20201;-58
2023/08/28 09:35:42;;;;;;;0.10;0.10;;;15.20;52.10;;;;;;5093232;28;20202;-59
2023/08/28 09:38:13;;;;;;;0.10;0.10;;;15.20;52.10;;;;;;5093503;28;20217;-58
2023/08/28 09:41:22;;;;;;;0.10;0.10;;;15.10;52.10;;;;;;5093243;28;20225;-58
2023/08/28 09:43:54;;;;;;;0.10;0.10;;;15.10;52.10;;;;;;5074934;28;20191;-59
2023/08/28 09:46:28;;;;;;;0.10;0.10;;;15.10;52.10;;;;;;5093217;28;20194;-58
2023/08/28 09:48:59;;;;;;;0.10;0.10;;;15.10;52.10;;;;;;5092387;28;20631;-58
2023/08/28 09:51:42;;;;;;;0.10;0.10;;;15.10;52.10;;;;;;5090778;28;20538;-58
2023/08/28 09:54:13;;;;;;;0.10;0.10;;;15.00;52.10;;;;;;5073457;28;20233;-58
2023/08/28 09:56:44;;;;;;;0.10;0.10;;;15.00;52.20;;;;;;5078460;28;20202;-58
2023/08/28 09:59:15;;;;;;;0.10;0.10;;;15.00;52.20;;;;;;5092426;28;20246;-58
2023/08/28 10:01:49;;;;;;;0.08;0.08;;;14.90;52.10;;;;;;5092828;28;20233;-58
2023/08/28 10:04:22;;;;;;;0.10;0.10;;;14.90;52.10;;;;;;5092362;28;20603;-59
2023/08/28 10:06:55;;;;;;;0.10;0.10;;;14.90;52.10;;;;;;5092343;28;20281;-58
2023/08/28 10:09:29;;;;;;;0.10;0.10;;;14.90;52.10;;;;;;5092837;28;20686;-58
2023/08/28 10:12:01;;;;;;;0.10;0.10;;;14.90;52.10;;;;;;5093342;28;20251;-58
2023/08/28 10:14:32;;;;;;;0.10;0.10;;;14.80;52.10;;;;;;5093914;28;20227;-58
2023/08/28 10:17:08;;;;;;;0.10;0.10;;;14.80;52.10;;;;;;5112780;28;20190;-58
2023/08/28 10:19:44;;;;;;;0.13;0.13;;;14.80;52.10;;;;;;5112465;28;20209;-58
2023/08/28 10:22:16;;;;;;;0.10;0.10;;;14.80;52.10;;;;;;5098908;28;20190;-58
2023/08/28 10:24:47;;;;;;;0.10;0.10;;;14.80;52.10;;;;;;5092584;28;20201;-58
2023/08/28 10:27:18;;;;;;;0.10;0.10;;;14.80;52.20;;;;;;5092478;28;20193;-58
2023/08/28 10:29:50;;;;;;;0.10;0.10;;;14.80;52.10;;;;;;5092409;28;20709;-58
2023/08/28 10:32:24;;;;;;;0.20;0.20;;;14.70;52.10;;;;;;5091676;28;20194;-58
2023/08/28 10:34:55;;;;;;;0.10;0.10;;;14.70;52.10;;;;;;5093690;28;20209;-58
2023/08/28 10:37:26;;;;;;;0.10;0.10;;;14.70;52.20;;;;;;5092483;28;20202;-58
2023/08/28 10:40:01;;;;;;;0.10;0.10;;;14.70;52.20;;;;;;5092190;28;20689;-58
2023/08/28 10:42:33;;;;;;;0.00;0.00;;;14.60;52.20;;;;;;5091889;28;20228;-57
2023/08/28 10:45:03;;;;;;;0.10;0.10;;;14.60;52.20;;;;;;5091853;28;20201;-58
2023/08/28 10:47:37;;;;;;;0.10;0.10;;;14.60;52.20;;;;;;5091278;28;20214;-58
2023/08/28 10:50:09;;;;;;;0.10;0.10;;;14.60;52.20;;;;;;5092103;28;20232;-58
2023/08/28 10:52:38;;;;;;;0.10;0.10;;;14.60;52.20;;;;;;5092100;28;20560;-58
2023/08/28 10:55:09;;;;;;;0.10;0.10;;;14.50;52.10;;;;;;5092235;28;20605;-58
2023/08/28 10:57:42;;;;;;;0.10;0.10;;;14.50;52.10;;;;;;5092013;28;20205;-58
2023/08/28 11:00:19;;;;;;;0.10;0.10;;;14.50;52.10;;;;;;5091636;28;20253;-58
2023/08/28 11:03:09;;;;;;;0.10;0.10;;;14.50;52.20;;;;;;5091845;28;20225;-58
2023/08/28 11:05:41;;;;;;;0.10;0.10;;;14.50;52.30;;;;;;5091611;28;20236;-58
2023/08/28 11:08:13;;;;;;;0.10;0.10;;;14.50;52.10;;;;;;5091650;28;20636;-58
2023/08/28 11:10:49;;;;;;;0.10;0.10;;;14.50;52.20;;;;;;5091969;28;20206;-58
2023/08/28 11:13:26;;;;;;;0.10;0.10;;;14.40;52.20;;;;;;5091746;28;20190;-58
2023/08/28 11:16:06;;;;;;;0.10;0.10;;;14.40;52.20;;;;;;5091546;28;20606;-58
2023/08/28 11:18:41;;;;;;;0.10;0.10;;;14.40;52.20;;;;;;5091537;28;20241;-58
2023/08/28 11:21:12;;;;;;;0.10;0.10;;;14.40;52.20;;;;;;5091664;28;20247;-58
2023/08/28 11:23:44;;;;;;;0.10;0.10;;;14.30;52.20;;;;;;5091636;28;20198;-58
2023/08/28 11:26:30;;;;;;;0.10;0.10;;;14.30;52.20;;;;;;5091619;28;20238;-58
2023/08/28 11:29:00;;;;;;;0.10;0.10;;;14.30;52.20;;;;;;5091241;28;20628;-58
2023/08/28 11:31:34;;;;;;;0.10;0.10;;;14.30;52.20;;;;;;5091585;28;20204;-58
2023/08/28 11:34:06;;;;;;;0.10;0.10;;;14.30;52.20;;;;;;5091250;28;20198;-58
2023/08/28 11:36:42;;;;;;;0.10;0.10;;;14.30;52.20;;;;;;5091566;28;20785;-58
2023/08/28 11:39:23;;;;;;;0.10;0.10;;;14.20;52.20;;;;;;5091255;28;20213;-58
2023/08/28 11:41:54;;;;;;;0.10;0.10;;;14.20;52.20;;;;;;5091538;28;20190;-58
2023/08/28 11:44:27;;;;;;;0.10;0.10;;;14.20;52.20;;;;;;5091504;28;20673;-58
2023/08/28 11:46:59;;;;;;;0.10;0.10;;;14.20;52.20;;;;;;5092027;28;20279;-58
2023/08/28 11:49:32;;;;;;;0.10;0.10;;;14.20;52.20;;;;;;5095413;28;20229;-58
2023/08/28 11:52:02;;;;;;;0.10;0.10;;;14.20;52.20;;;;;;5095823;28;20197;-58
2023/08/28 11:54:36;;;;;;;0.10;0.10;;;14.20;52.20;;;;;;5095933;28;20241;-58
2023/08/28 11:57:08;;;;;;;0.10;0.10;;;14.10;52.20;;;;;;5095132;28;20205;-58
2023/08/28 11:59:38;;;;;;;0.10;0.10;;;14.10;52.20;;;;;;5095242;28;20242;-58
2023/08/28 12:02:10;;;;;;;0.20;0.20;;;14.10;52.20;;;;;;5095137;28;20187;-57
2023/08/28 12:04:43;;;;;;;0.10;0.10;;;14.10;52.20;;;;;;5095504;28;20689;-58
2023/08/28 12:07:20;;;;;;;0.10;0.10;;;14.10;52.20;;;;;;5095630;28;20642;-58
2023/08/28 12:09:52;;;;;;;0.10;0.10;;;14.00;52.20;;;;;;5095240;28;20221;-58
2023/08/28 12:12:23;;;;;;;0.10;0.10;;;14.00;52.20;;;;;;5095300;28;20194;-58
2023/08/28 12:14:55;;;;;;;0.20;0.20;;;14.00;52.20;;;;;;5095232;28;20194;-58
2023/08/28 12:17:27;;;;;;;0.10;0.10;;;14.00;52.20;;;;;;5094507;28;20198;-58
2023/08/28 12:19:59;;;;;;;0.10;0.10;;;14.00;52.20;;;;;;5095745;28;20249;-58
2023/08/28 12:22:31;;;;;;;0.10;0.10;;;13.90;52.30;;;;;;5095079;28;20209;-58
2023/08/28 12:25:01;;;;;;;0.10;0.10;;;13.90;52.20;;;;;;5095183;28;20248;-57
2023/08/28 12:27:32;;;;;;;0.10;0.10;;;13.90;52.20;;;;;;5095219;28;20228;-58
2023/08/28 12:30:03;;;;;;;0.10;0.10;;;13.90;52.20;;;;;;5094491;28;20300;-57
2023/08/28 12:32:33;;;;;;;0.10;0.10;;;13.90;52.20;;;;;;5094720;28;20202;-57
2023/08/28 12:35:16;;;;;;;0.10;0.10;;;13.90;52.20;;;;;;5094335;28;20202;-57
2023/08/28 12:37:51;;;;;;;0.15;0.15;;;13.90;52.20;;;;;;5094547;28;20198;-58
2023/08/28 12:40:22;;;;;;;0.10;0.10;;;13.90;52.20;;;;;;5096252;28;20217;-57
2023/08/28 12:43:02;;;;;;;0.10;0.10;;;13.80;52.10;;;;;;5094702;28;20198;-58
2023/08/28 12:45:35;;;;;;;0.10;0.10;;;13.80;52.10;;;;;;5094333;28;20200;-58
2023/08/28 12:48:06;;;;;;;0.10;0.10;;;13.80;52.10;;;;;;5094123;28;20225;-58
2023/08/28 12:50:38;;;;;;;0.10;0.10;;;13.80;52.10;;;;;;5093641;28;20693;-58
2023/08/28 12:53:09;;;;;;;0.10;0.10;;;13.80;52.10;;;;;;5094073;28;20194;-58
2023/08/28 12:55:39;;;;;;;0.10;0.10;;;13.80;52.20;;;;;;5093982;28;20598;-58
2023/08/28 12:58:10;;;;;;;0.10;0.10;;;13.80;52.20;;;;;;5093623;28;20215;-58
2023/08/28 13:00:40;;;;;;;0.15;0.15;;;13.70;52.20;;;;;;5093950;28;20198;-57
2023/08/28 13:03:11;;;;;;;0.10;0.10;;;13.70;52.20;;;;;;5094198;28;20198;-58
2023/08/28 13:05:44;;;;;;;0.20;0.20;;;13.70;52.20;;;;;;5094247;28;20194;-57
2023/08/28 13:08:14;;;;;;;0.10;0.10;;;13.70;52.10;;;;;;5093936;28;20222;-58
2023/08/28 13:10:47;;;;;;;0.10;0.10;;;13.70;52.20;;;;;;5093547;28;20691;-58
2023/08/28 13:13:18;;;;;;;0.10;0.10;;;13.70;52.20;;;;;;5093717;28;20657;-58